EST,Max TemperatureF,Mean TemperatureF,Min TemperatureF,Max Dew PointF,MeanDew PointF,Min DewpointF,Max Humidity, Mean Humidity, Min Humidity, Max Sea Level PressureIn, Mean Sea Level PressureIn, Min Sea Level PressureIn, Max VisibilityMiles, Mean VisibilityMiles, Min VisibilityMiles, Max Wind SpeedMPH, Mean Wind SpeedMPH, Max Gust SpeedMPH,PrecipitationIn, CloudCover, Events, WindDirDegrees
2013-1-1,39,32,26,28,21,9,70,56,43,29.91,29.78,29.73,10,10,10,26,21,36,0.00,4,,285
2013-1-2,32,26,19,16,13,9,69,57,43,30.07,29.96,29.90,10,10,10,24,20,34,0.00,3,,300
2013-1-3,28,22,15,18,11,3,93,65,37,30.12,30.07,30.01,10,10,5,21,13,28,0.00,4,,295
2013-1-4,39,34,28,25,22,18,75,63,45,30.00,29.92,29.84,10,10,10,24,16,30,0.00,1,,260
2013-1-5,42,33,24,27,23,18,86,60,42,30.27,30.10,29.87,10,10,10,23,16,31,0.00,0,,288
2013-1-6,41,34,28,34,30,25,100,79,60,30.23,30.06,29.95,10,10,7,21,9,28,0.41,5,,230
2013-1-7,39,32,24,34,28,19,93,75,65,30.43,30.21,29.97,10,10,10,21,12,26,0.35,3,,325
2013-1-8,46,38,30,36,33,27,87,77,57,30.40,30.35,30.28,10,10,10,28,14,34,0.00,0,,232
2013-1-9,46,36,26,41,34,23,100,83,70,30.41,30.24,30.02,10,10,5,23,9,31,0.00,1,,229
2013-1-10,46,42,39,34,29,25,70,57,46,30.51,30.32,30.05,10,10,10,30,19,40,0.00,0,,308
2013-1-11,42,40,37,37,31,27,93,71,61,30.51,30.41,30.25,10,10,10,14,8,20,0.03,3,,83
2013-1-12,46,42,39,43,40,37,100,88,76,30.25,30.18,30.14,10,10,9,7,5,,0.03,8,,155
2013-1-13,48,45,42,48,44,39,100,96,87,30.18,30.11,30.04,10,2,0,18,7,25,0.00,8,,197
2013-1-14,55,50,44,54,45,36,100,87,58,30.26,30.05,29.93,10,6,0,21,12,28,0.10,6,,253
2013-1-15,44,42,39,36,33,30,87,72,61,30.29,30.26,30.21,10,10,10,14,8,16,0.73,7,,10
2013-1-16,42,40,37,41,37,32,100,89,70,30.24,29.98,29.78,10,8,2,16,6,21,1.06,8,,330
2013-1-17,42,38,33,34,29,19,93,71,56,30.08,29.97,29.86,10,10,10,18,13,23,0.16,3,,286
2013-1-18,33,27,21,21,8,0,80,48,34,30.48,30.30,30.04,10,9,2,26,18,37,0.00,3,,302
2013-1-19,46,36,26,46,30,10,100,69,51,30.44,30.16,29.95,10,10,10,38,20,50,0.00,3,,218
2013-1-20,53,42,32,43,32,12,87,64,41,29.94,29.75,29.58,10,10,10,32,20,40,0.00,1,,245
2013-1-21,30,28,26,27,13,5,100,56,40,30.11,30.00,29.79,10,9,2,25,15,34,0.00,4,,264
2013-1-22,30,24,19,27,13,1,93,63,40,30.05,29.86,29.72,10,9,2,34,16,46,0.00,7,,292
2013-1-23,19,16,12,3,-1,-6,62,50,38,30.13,30.09,30.05,10,10,10,26,20,37,0.00,7,,275
2013-1-24,23,11,10,7,2,0,85,65,46,30.10,30.09,30.07,10,10,10,23,20,32,0.00,4,,297
2013-1-25,42,38,33,19,5,1,48,24,18,30.36,30.16,30.06,10,10,5,,,,0.00,2,,-1
2013-1-26,30,24,19,21,13,3,86,65,40,30.18,30.05,29.98,10,9,2,31,25,41,0.00,5,,334
2013-1-27,30,24,19,12,9,5,68,51,37,30.46,30.35,30.19,10,10,10,30,24,43,0.00,1,,335
2013-1-28,33,28,24,34,16,7,100,62,37,30.44,30.30,30.02,10,9,1,17,11,22,0.00,4,,307
2013-1-29,39,36,32,37,35,30,100,95,87,30.21,30.13,30.01,10,9,4,7,2,,0.14,8,,153
2013-1-30,48,42,37,45,39,36,100,96,82,30.17,30.06,29.93,10,10,10,16,10,25,0.02,8,,165
2013-1-31,,,,,,,,,,,,,,,,,,,,,,